Aérodrome :
LOGIN :

S'inscrire | Disclaimer

   EN    FR    IT 

 










Légende :    VFR   VFR Marginal   IFR   IFR Intensif   IFR Très Intensif
Visi : 
Plafond : 
>= 8 km
>= 3000ft
5 à 8 km
1000 à 3000 ft
1500m à 5 km
500 à 1000 ft
800 à 1500m
200 à 500 ft
< 800m
< 200 ft
Symboles :   Orages  Brouillard  Fortes neiges  Fortes précipitations  Vent > 20 kt
SIGMETs :   Divers  Orages  Givrage  Turbulence  Onde Orograph.  Cendres Volcan.






- Altitude de l'aérodrome : 1910 ft
- Code IATA : RDZ


LFCR - Rodez

DERNIER METAR :
  • 110300Z AUTO 28009KT 7000 +RA OVC007/// ///CB 07/07 Q1010 TEMPO 29020G35KT 4000 SHRA

METARs EXPIRÉS :
  • 110230Z AUTO 28009KT 7000 RA BKN008/// BKN013/// BKN026/// ///CB 07/07 Q1009 TEMPO 29020G35KT 4000 SHRA
  • 110200Z AUTO 26022G32KT 9999 2500 +RA SCT012/// BKN032/// BKN045/// ///CB 07/05 Q1009 TEMPO 2000 TSRA BKN008 SCT030CB
  • 110130Z AUTO 29002KT 9999 ///CB 09/08 Q1008 TEMPO 29020G35KT 2000 TSRA BKN008 SCT030CB
  • 110100Z AUTO 06003KT 9999 ///TCU 10/08 Q1007 TEMPO 29020G35KT 2000 TSRA BKN008 SCT030CB
  • 110030Z AUTO 10003KT 9999 ///TCU 10/09 Q1008 TEMPO 29018G30KT 2000 TSRA BKN008 SCT030CB

TAF AMD TAF LFCR
Valide du 11 à 00h jusqu'au 12 à 00h UTC


110045Z 1100/1124 VRB03KT 9999 BKN045
BECMG 1100/1102 29010KT SCT011 BKN025
TEMPO 1100/1110 4000 SHRA BKN008 SCT030CB
PROB40
TEMPO 1100/1104 29020G35KT 2000 TSRA
BECMG 1110/1112 SCT020 SCT035TCU
TEMPO 1110/1118 31015G25KT 4000 SHRA SCT040CB



MET'MAP, la Météo Aéronautique d'un coup d'oeil ! - Copyright ORBIFLY Décembre 2007 - Disclaimer

ORBIFLY MET'MAP TEAM :

Programmation & Développement : Alexandra Zaïnal
Sur une idée originale de : Baudouin d'Aumeries
Assistance à la programmation : Marc-Olivier Méhu
Soutien technique & logistique : Manuel Goepfert

Contact : metmap@orbifly.com




SOURCES & CREDITS :

   NOAA